Time;durP1;ratioP1;P1;durP2;ratioP2;P2;SDS_P1;SDS_P2;PMS_P1;PMS_P2;Temp;Humidity;BMP_temperature;BMP_pressure;BME280_temperature;BME280_humidity;BME280_pressure;Samples;Min_cycle;Max_cycle;Signal;HPM_P1;HPM_P2
2022/03/16 00:01:32;;;;;;;0.20;0.20;;;5.60;99.90;;;5.32;100.00;101815.75;5028667;28;20253;-76
2022/03/16 00:04:00;;;;;;;0.20;0.20;;;;;;;5.34;100.00;101828.13;5031144;28;20207;-76
2022/03/16 00:06:28;;;;;;;0.20;0.20;;;5.60;99.90;;;5.23;100.00;101837.16;5032091;28;20215;-76
2022/03/16 00:08:56;;;;;;;0.20;0.20;;;5.50;99.90;;;5.24;100.00;101843.28;5040933;28;20592;-76
2022/03/16 00:11:27;;;;;;;0.20;0.20;;;5.50;99.90;;;5.25;100.00;101853.88;5030413;28;20211;-75
2022/03/16 00:13:55;;;;;;;0.20;0.20;;;5.50;99.90;;;5.20;100.00;101843.91;5032075;28;20215;-75
2022/03/16 00:16:23;;;;;;;0.40;0.40;;;;;;;5.26;100.00;101853.03;5027007;28;20204;-75
2022/03/16 00:18:51;;;;;;;0.20;0.20;;;5.40;99.90;;;5.30;100.00;101868.13;5032127;28;20199;-76
2022/03/16 00:21:19;;;;;;;0.30;0.30;;;5.50;99.90;;;5.32;100.00;101876.97;5027862;28;20234;-76
2022/03/16 00:23:48;;;;;;;0.20;0.20;;;5.50;99.90;;;5.32;100.00;101873.44;5030253;28;20219;-76
2022/03/16 00:26:16;;;;;;;0.20;0.20;;;5.50;99.90;;;5.28;100.00;101877.63;5029545;28;20203;-76
2022/03/16 00:28:45;;;;;;;0.20;0.20;;;5.50;99.90;;;5.24;100.00;101880.91;5029981;28;20207;-76
2022/03/16 00:31:13;;;;;;;0.20;0.20;;;5.50;99.90;;;5.22;100.00;101887.81;5025670;28;20715;-76
2022/03/16 00:33:41;;;;;;;0.20;0.20;;;5.50;99.90;;;5.19;100.00;101891.94;5012644;28;20215;-76
2022/03/16 00:36:09;;;;;;;0.20;0.20;;;5.50;99.90;;;5.21;100.00;101890.34;5027064;28;20218;-75
2022/03/16 00:38:37;;;;;;;0.25;0.25;;;5.50;99.90;;;5.22;100.00;101894.78;5018995;28;20215;-76
2022/03/16 00:41:07;;;;;;;0.20;0.20;;;5.40;99.90;;;5.16;100.00;101895.31;5031079;28;20234;-76
2022/03/16 00:43:36;;;;;;;0.20;0.20;;;5.40;99.90;;;5.18;100.00;101900.63;5009358;28;20208;-76
2022/03/16 00:46:04;;;;;;;0.20;0.20;;;5.40;99.90;;;5.20;100.00;101901.63;5031616;28;20215;-76
2022/03/16 00:48:34;;;;;;;0.20;0.20;;;5.40;99.90;;;5.15;100.00;101907.50;5019977;28;20215;-76
2022/03/16 00:51:02;;;;;;;0.68;0.68;;;5.40;99.90;;;5.17;100.00;101910.22;5029921;28;20219;-76
2022/03/16 00:53:33;;;;;;;0.20;0.20;;;5.40;99.90;;;5.21;100.00;101919.19;5028032;28;20233;-76
2022/03/16 00:56:02;;;;;;;0.20;0.20;;;5.40;99.90;;;5.14;100.00;101916.19;5047006;28;20210;-76
2022/03/16 00:58:30;;;;;;;0.47;0.47;;;5.40;99.90;;;5.11;100.00;101918.66;5011753;28;20215;-76
2022/03/16 01:01:01;;;;;;;0.20;0.20;;;5.40;99.90;;;5.07;100.00;101921.94;5036402;28;20231;-76
2022/03/16 01:03:29;;;;;;;0.20;0.20;;;5.40;99.90;;;5.08;100.00;101921.13;5029644;28;20207;-76
2022/03/16 01:05:57;;;;;;;0.20;0.20;;;5.30;99.90;;;5.03;100.00;101927.81;5027714;28;20214;-76
2022/03/16 01:08:25;;;;;;;0.20;0.20;;;5.30;99.90;;;5.00;100.00;101924.13;5029287;28;20218;-76
2022/03/16 01:10:54;;;;;;;1.10;1.10;;;5.30;99.90;;;5.00;100.00;101921.50;5030312;28;20238;-76
2022/03/16 01:13:22;;;;;;;0.20;0.20;;;5.30;99.90;;;5.02;100.00;101923.41;5009546;28;20208;-76
2022/03/16 01:15:50;;;;;;;0.30;0.30;;;5.30;99.90;;;5.04;100.00;101931.34;5034528;28;20584;-75
2022/03/16 01:18:19;;;;;;;0.20;0.20;;;5.20;99.90;;;5.07;100.00;101934.13;5044273;28;20204;-76
2022/03/16 01:20:47;;;;;;;0.73;0.73;;;5.30;99.90;;;5.11;100.00;101936.13;5019390;28;20231;-76
2022/03/16 01:23:15;;;;;;;0.20;0.20;;;5.30;99.90;;;5.12;100.00;101940.53;5031472;28;20235;-76
2022/03/16 01:25:43;;;;;;;0.20;0.20;;;5.30;99.90;;;5.11;100.00;101942.25;5029438;28;20199;-73
2022/03/16 01:28:11;;;;;;;0.20;0.20;;;5.30;99.90;;;5.09;100.00;101938.66;5027335;28;20208;-73
2022/03/16 01:30:42;;;;;;;0.20;0.20;;;5.30;99.90;;;5.14;100.00;101938.91;5044176;28;20234;-73
2022/03/16 01:33:10;;;;;;;0.20;0.20;;;5.30;99.90;;;5.18;100.00;101946.13;5031011;28;20653;-73
2022/03/16 01:35:39;;;;;;;0.30;0.30;;;5.40;99.90;;;5.21;100.00;101948.03;5031740;28;20195;-73
2022/03/16 01:38:10;;;;;;;0.20;0.20;;;5.40;99.90;;;5.24;100.00;101948.22;5031333;28;20207;-73
2022/03/16 01:40:38;;;;;;;0.20;0.20;;;5.40;99.90;;;5.16;100.00;101937.25;5028925;28;20223;-74
2022/03/16 01:43:06;;;;;;;1.08;1.08;;;5.50;99.90;;;5.17;100.00;101940.78;5001035;28;20234;-74
2022/03/16 01:45:34;;;;;;;0.20;0.20;;;5.40;99.90;;;5.20;100.00;101952.38;5019023;28;20211;-75
2022/03/16 01:48:03;;;;;;;0.20;0.20;;;5.50;99.90;;;5.15;100.00;101945.94;5028872;28;20212;-75
2022/03/16 01:50:32;;;;;;;0.20;0.20;;;5.40;99.90;;;5.17;100.00;101944.31;5028685;28;20992;-74
2022/03/16 01:53:00;;;;;;;0.38;0.38;;;5.40;99.90;;;5.19;100.00;101954.88;5013268;28;20208;-74
2022/03/16 01:55:29;;;;;;;0.30;0.30;;;5.40;99.90;;;5.15;100.00;101948.56;5025467;28;20207;-74
2022/03/16 01:57:57;;;;;;;0.20;0.20;;;5.40;99.90;;;5.06;100.00;101941.09;5029931;28;20211;-74
2022/03/16 02:00:25;;;;;;;0.40;0.40;;;5.40;99.90;;;5.04;100.00;101945.38;5027663;28;20238;-75
2022/03/16 02:02:53;;;;;;;0.20;0.20;;;5.30;99.90;;;5.14;100.00;101954.63;5045676;28;20235;-74
2022/03/16 02:05:22;;;;;;;0.30;0.30;;;;;;;5.21;100.00;101974.28;5030946;28;20210;-74
2022/03/16 02:07:50;;;;;;;0.20;0.20;;;5.40;99.90;;;5.17;100.00;101970.53;5029524;28;20199;-74
2022/03/16 02:10:18;;;;;;;0.75;0.75;;;5.40;99.90;;;5.09;100.00;101961.34;5032849;28;20246;-74
2022/03/16 02:12:49;;;;;;;0.35;0.35;;;5.40;99.90;;;5.10;100.00;101963.16;5031968;28;20598;-75
2022/03/16 02:15:19;;;;;;;0.20;0.20;;;5.40;99.90;;;5.07;100.00;101961.25;5030772;28;20212;-75
2022/03/16 02:17:50;;;;;;;0.20;0.20;;;5.30;99.90;;;5.10;100.00;101955.28;5033956;28;20211;-75
2022/03/16 02:20:19;;;;;;;0.20;0.20;;;5.30;99.90;;;5.09;100.00;101958.72;5032345;28;20257;-75
2022/03/16 02:22:53;;;;;;;0.20;0.20;;;5.30;99.90;;;5.05;100.00;101965.53;5033232;28;20226;-75
2022/03/16 02:25:23;;;;;;;0.20;0.20;;;5.30;99.90;;;4.96;100.00;101945.75;5030932;28;20215;-75
2022/03/16 02:27:52;;;;;;;0.20;0.20;;;5.30;99.90;;;5.04;100.00;101955.84;5028997;28;20211;-75
2022/03/16 02:30:22;;;;;;;0.10;0.10;;;5.20;99.90;;;5.02;100.00;101953.97;5033124;28;20234;-74
2022/03/16 02:32:50;;;;;;;0.20;0.20;;;5.20;99.90;;;4.93;100.00;101956.97;5032979;28;20211;-74
2022/03/16 02:35:19;;;;;;;0.20;0.20;;;5.20;99.90;;;4.92;100.00;101954.25;5033390;28;20207;-75
2022/03/16 02:37:47;;;;;;;0.30;0.30;;;5.20;99.90;;;4.90;100.00;101951.56;5015953;28;20206;-75
2022/03/16 02:40:23;;;;;;;0.20;0.20;;;5.10;99.90;;;4.82;100.00;101951.13;5030181;28;20227;-75
2022/03/16 02:42:52;;;;;;;0.30;0.30;;;5.10;99.90;;;4.83;100.00;101946.78;5025812;28;20227;-75
2022/03/16 02:45:20;;;;;;;0.20;0.20;;;5.10;99.90;;;4.88;100.00;101961.06;5032107;28;20222;-74
2022/03/16 02:47:48;;;;;;;0.20;0.20;;;5.10;99.90;;;4.87;100.00;101963.59;5027323;28;20212;-74
2022/03/16 02:50:18;;;;;;;0.20;0.20;;;5.10;99.90;;;4.86;100.00;101959.16;5032941;28;20219;-74
2022/03/16 02:52:47;;;;;;;0.20;0.20;;;5.10;99.90;;;4.82;100.00;101965.97;5031068;28;20226;-74
2022/03/16 02:55:35;;;;;;;0.22;0.22;;;5.10;99.90;;;4.78;100.00;101964.88;5020343;28;20215;-74
2022/03/16 02:58:03;;;;;;;0.30;0.30;;;5.10;99.90;;;4.80;100.00;101975.44;5028256;28;20211;-74
2022/03/16 03:00:32;;;;;;;0.52;0.52;;;;;;;4.83;100.00;101966.03;5030604;28;20226;-74
2022/03/16 03:03:00;;;;;;;0.30;0.30;;;5.00;99.90;;;4.80;100.00;101971.09;5019168;28;20246;-74
2022/03/16 03:05:28;;;;;;;0.20;0.20;;;5.10;99.90;;;4.85;100.00;101973.09;5029212;28;20204;-74
2022/03/16 03:07:56;;;;;;;0.20;0.20;;;5.10;99.90;;;4.86;100.00;101977.50;5029775;28;20226;-75
2022/03/16 03:10:24;;;;;;;0.25;0.25;;;;;;;4.84;100.00;101977.44;5028032;28;20227;-75
2022/03/16 03:12:52;;;;;;;0.20;0.20;;;5.00;99.90;;;4.83;100.00;101981.78;5024452;28;20207;-74
2022/03/16 03:15:20;;;;;;;0.20;0.20;;;5.00;99.90;;;4.81;100.00;101985.13;5026320;28;20215;-74
2022/03/16 03:17:48;;;;;;;0.90;0.90;;;5.00;99.90;;;4.80;100.00;101975.44;5032339;28;20219;-74
2022/03/16 03:20:16;;;;;;;0.20;0.20;;;5.00;99.90;;;4.77;100.00;101975.28;5021172;28;20235;-74
2022/03/16 03:22:44;;;;;;;0.20;0.20;;;5.00;99.90;;;4.79;100.00;101978.88;5032173;28;20219;-74
2022/03/16 03:25:14;;;;;;;0.20;0.20;;;5.00;99.90;;;4.77;100.00;101976.19;5029457;28;20207;-74
2022/03/16 03:27:42;;;;;;;0.20;0.20;;;;;;;4.77;100.00;101977.91;5028307;28;20211;-74
2022/03/16 03:30:11;;;;;;;0.20;0.20;;;5.00;99.90;;;4.76;100.00;101977.00;5029205;28;20230;-74
2022/03/16 03:32:39;;;;;;;0.30;0.30;;;5.10;99.90;;;4.78;100.00;101974.47;5031654;28;20207;-74
2022/03/16 03:35:07;;;;;;;0.30;0.30;;;5.00;99.90;;;4.78;100.00;101977.97;5030387;28;20211;-74
2022/03/16 03:37:36;;;;;;;0.20;0.20;;;5.00;99.90;;;4.79;100.00;101985.03;5031271;28;20199;-74
2022/03/16 03:40:06;;;;;;;0.20;0.20;;;5.00;99.90;;;4.74;100.00;101981.25;5031515;28;20235;-75
2022/03/16 03:42:34;;;;;;;0.20;0.20;;;5.00;99.90;;;4.75;100.00;101977.81;5033454;28;20226;-74
2022/03/16 03:45:03;;;;;;;0.20;0.20;;;;;;;4.76;100.00;101976.09;5028449;28;20207;-74
2022/03/16 03:47:30;;;;;;;0.30;0.30;;;5.00;99.90;;;4.74;100.00;101973.38;5025894;28;20203;-74
2022/03/16 03:49:59;;;;;;;0.20;0.20;;;;;;;4.75;100.00;101972.56;5025677;28;20249;-74
2022/03/16 03:52:26;;;;;;;0.30;0.30;;;5.00;99.90;;;4.74;100.00;101980.34;5030282;28;20199;-74
2022/03/16 03:54:54;;;;;;;0.22;0.22;;;5.00;99.90;;;4.76;100.00;101982.25;5024800;28;20547;-74
2022/03/16 03:57:22;;;;;;;0.20;0.20;;;5.00;99.90;;;4.76;100.00;101973.47;5031404;28;20204;-74
2022/03/16 03:59:51;;;;;;;0.30;0.30;;;;;;;4.73;100.00;101968.97;5029938;28;20238;-74
2022/03/16 04:02:18;;;;;;;0.30;0.30;;;5.00;99.90;;;4.71;100.00;101967.06;5029544;28;20215;-74
2022/03/16 04:04:47;;;;;;;0.20;0.20;;;5.00;99.90;;;4.73;100.00;101966.34;5029201;28;20597;-74
2022/03/16 04:07:15;;;;;;;0.20;0.20;;;;;;;4.75;100.00;101966.44;5030110;28;20211;-74
2022/03/16 04:09:43;;;;;;;0.30;0.30;;;5.00;99.90;;;4.76;100.00;101968.22;5029990;28;20219;-74
2022/03/16 04:12:11;;;;;;;0.20;0.20;;;5.00;99.90;;;4.73;100.00;101963.72;5027454;28;20204;-74
2022/03/16 04:14:39;;;;;;;0.20;0.20;;;;;;;4.76;100.00;101934.16;5023242;28;20203;-74
2022/03/16 04:17:07;;;;;;;0.20;0.20;;;;;;;4.72;100.00;101909.50;5030102;28;20214;-74
2022/03/16 04:19:35;;;;;;;0.20;0.20;;;5.00;99.90;;;4.72;100.00;101905.97;5022305;28;20223;-74
2022/03/16 04:22:03;;;;;;;0.20;0.20;;;5.00;99.90;;;4.76;100.00;101903.59;5030114;28;20682;-74
2022/03/16 04:24:31;;;;;;;0.20;0.20;;;5.00;99.90;;;4.74;100.00;101900.00;5031382;28;20238;-74
2022/03/16 04:27:00;;;;;;;0.20;0.20;;;;;;;4.73;100.00;101895.56;5031443;28;20207;-74
2022/03/16 04:29:29;;;;;;;0.30;0.30;;;;;;;4.73;100.00;101897.28;5020188;28;20238;-74
2022/03/16 04:31:58;;;;;;;0.30;0.30;;;;;;;4.75;100.00;101893.03;5030892;28;20207;-75
2022/03/16 04:34:26;;;;;;;0.30;0.30;;;4.90;99.90;;;4.73;100.00;101894.69;5031416;28;20199;-75
2022/03/16 04:36:54;;;;;;;0.20;0.20;;;;;;;4.75;100.00;101896.56;5031766;28;20207;-75
2022/03/16 04:39:22;;;;;;;0.20;0.20;;;4.90;99.90;;;4.78;100.00;101899.34;5030906;28;20695;-75
2022/03/16 04:41:50;;;;;;;0.20;0.20;;;5.00;99.90;;;4.80;100.00;101895.09;5031452;28;20207;-75
2022/03/16 04:44:18;;;;;;;0.20;0.20;;;5.00;99.90;;;4.79;100.00;101898.53;5031322;28;20234;-75
2022/03/16 04:46:46;;;;;;;0.30;0.30;;;;;;;4.80;100.00;101894.19;5024713;28;20195;-75
2022/03/16 04:49:14;;;;;;;0.20;0.20;;;5.00;99.90;;;4.81;100.00;101899.53;5025088;28;20598;-75
2022/03/16 04:51:43;;;;;;;0.30;0.30;;;;;;;4.82;100.00;101896.09;5030790;28;20199;-75
2022/03/16 04:54:10;;;;;;;0.30;0.30;;;5.00;99.90;;;4.82;100.00;101898.72;5028316;28;20203;-76
2022/03/16 04:56:39;;;;;;;0.43;0.43;;;;;;;4.82;100.00;101898.72;5030213;28;20214;-76
2022/03/16 04:59:07;;;;;;;0.30;0.30;;;5.10;99.90;;;4.84;100.00;101893.56;5030412;28;20203;-76
2022/03/16 05:01:35;;;;;;;0.20;0.20;;;5.00;99.90;;;4.86;100.00;101909.38;5030117;28;20206;-76
2022/03/16 05:04:08;;;;;;;0.20;0.20;;;5.10;99.90;;;4.86;100.00;101901.50;5029795;28;20235;-76
2022/03/16 05:06:36;;;;;;;0.20;0.20;;;5.10;99.90;;;4.88;100.00;101905.09;5028851;28;20195;-76
2022/03/16 05:09:04;;;;;;;0.30;0.30;;;5.10;99.90;;;4.87;100.00;101900.69;5030072;28;20207;-76
2022/03/16 05:11:32;;;;;;;0.20;0.20;;;5.10;99.90;;;4.87;100.00;101898.97;5030955;28;20210;-76
2022/03/16 05:14:00;;;;;;;0.20;0.20;;;;;;;4.90;100.00;101900.84;5031580;28;20205;-76
2022/03/16 05:16:28;;;;;;;0.20;0.20;;;;;;;4.87;100.00;101904.22;5029308;28;20206;-76
2022/03/16 05:18:56;;;;;;;0.30;0.30;;;;;;;4.90;100.00;101898.22;5029291;28;20247;-76
2022/03/16 05:21:24;;;;;;;0.10;0.10;;;;;;;4.89;100.00;101905.19;5029476;28;20203;-76
2022/03/16 05:23:52;;;;;;;0.10;0.10;;;5.10;99.90;;;4.92;100.00;101912.31;5011598;28;20232;-76
2022/03/16 05:26:20;;;;;;;0.43;0.43;;;;;;;4.95;100.00;101912.50;5011438;28;20215;-76
2022/03/16 05:28:48;;;;;;;0.22;0.22;;;5.10;99.90;;;4.95;100.00;101913.41;5026829;28;20584;-76
2022/03/16 05:31:16;;;;;;;0.20;0.20;;;;;;;4.99;100.00;101917.09;5031297;28;20202;-76
2022/03/16 05:33:44;;;;;;;0.30;0.30;;;5.20;99.90;;;4.99;100.00;101919.72;5015711;28;20203;-76
2022/03/16 05:36:12;;;;;;;0.20;0.20;;;5.10;99.90;;;4.95;100.00;101916.00;5033477;28;20214;-76
2022/03/16 05:38:40;;;;;;;0.22;0.22;;;5.10;99.90;;;4.99;100.00;101930.19;5033722;28;20211;-76
2022/03/16 05:41:08;;;;;;;0.30;0.30;;;5.20;99.90;;;4.99;100.00;101923.22;5033330;28;20219;-76
2022/03/16 05:43:39;;;;;;;0.20;0.20;;;5.20;99.90;;;5.00;100.00;101922.41;5033261;28;20230;-78
2022/03/16 05:46:07;;;;;;;0.20;0.20;;;5.20;99.90;;;5.00;100.00;101924.13;5034335;28;20221;-75
2022/03/16 05:48:35;;;;;;;0.20;0.20;;;5.20;99.90;;;4.97;100.00;101919.63;5032723;28;20200;-75
2022/03/16 05:51:03;;;;;;;0.30;0.30;;;5.20;99.90;;;4.99;100.00;101925.84;5033508;28;20238;-75
2022/03/16 05:53:31;;;;;;;0.20;0.20;;;5.20;99.90;;;5.01;100.00;101923.31;5020820;28;20220;-75
2022/03/16 05:55:59;;;;;;;0.20;0.20;;;;;;;4.99;100.00;101930.19;5019285;28;20218;-75
2022/03/16 05:58:27;;;;;;;0.20;0.20;;;5.20;99.90;;;5.03;100.00;101930.44;5033667;28;20226;-75
2022/03/16 06:00:55;;;;;;;0.20;0.20;;;;;;;5.07;100.00;101934.13;5032253;28;20227;-75
2022/03/16 06:03:23;;;;;;;0.20;0.20;;;;;;;5.06;100.00;101940.19;5035422;28;20203;-76
2022/03/16 06:05:51;;;;;;;0.20;0.20;;;5.20;99.90;;;5.10;100.00;101942.19;5033115;28;20557;-76
2022/03/16 06:08:19;;;;;;;0.20;0.20;;;5.30;99.90;;;5.09;100.00;101945.63;5033541;28;20210;-77
2022/03/16 06:10:47;;;;;;;0.20;0.20;;;5.30;99.90;;;5.11;100.00;101939.63;5032907;28;20223;-76
2022/03/16 06:13:16;;;;;;;0.20;0.20;;;5.30;99.90;;;5.11;100.00;101942.25;5033887;28;20203;-76
2022/03/16 06:15:44;;;;;;;0.20;0.20;;;5.40;99.90;;;5.13;100.00;101942.34;5033871;28;20218;-76
2022/03/16 06:18:12;;;;;;;0.40;0.40;;;5.30;99.90;;;5.15;100.00;101945.94;5033696;28;20200;-77
2022/03/16 06:20:41;;;;;;;0.30;0.30;;;5.40;99.90;;;5.17;100.00;101951.28;5033158;28;20599;-78
2022/03/16 06:23:09;;;;;;;0.20;0.20;;;;;;;5.18;100.00;101951.38;5025288;28;20204;-76
2022/03/16 06:25:40;;;;;;;0.28;0.28;;;;;;;5.19;100.00;101958.41;5019966;28;20238;-76
2022/03/16 06:28:08;;;;;;;0.20;0.20;;;5.40;99.90;;;5.21;100.00;101961.16;5030307;28;20206;-76
2022/03/16 06:30:36;;;;;;;0.30;0.30;;;5.40;99.90;;;5.24;100.00;101953.47;5028511;28;20227;-76
2022/03/16 06:33:04;;;;;;;0.20;0.20;;;5.40;99.90;;;5.23;100.00;101955.19;5033227;28;20215;-77
2022/03/16 06:35:32;;;;;;;0.20;0.20;;;;;;;5.18;100.00;101954.00;5031613;28;20211;-76
2022/03/16 06:38:00;;;;;;;0.20;0.20;;;;;;;5.23;100.00;101956.91;5033290;28;20215;-76
2022/03/16 06:40:28;;;;;;;0.22;0.22;;;5.50;99.90;;;5.28;100.00;101960.66;5032402;28;20230;-76
2022/03/16 06:42:58;;;;;;;0.20;0.20;;;5.50;99.90;;;5.28;100.00;101960.66;5032958;28;20676;-76
2022/03/16 06:45:29;;;;;;;0.30;0.30;;;5.50;99.90;;;5.32;100.00;101965.28;5032401;28;20230;-76
2022/03/16 06:47:59;;;;;;;0.20;0.20;;;5.50;99.90;;;5.27;100.00;101967.63;5032948;28;20210;-76
2022/03/16 06:50:28;;;;;;;0.40;0.40;;;5.50;99.90;;;5.28;100.00;101965.91;5032378;28;20230;-77
2022/03/16 06:52:58;;;;;;;0.28;0.28;;;5.50;99.90;;;5.30;100.00;101977.41;5033237;28;20210;-76
2022/03/16 06:55:29;;;;;;;0.20;0.20;;;5.50;99.90;;;5.34;100.00;101982.91;5033013;28;20199;-76
2022/03/16 06:57:57;;;;;;;0.30;0.30;;;5.50;99.90;;;5.33;100.00;101986.34;5032875;28;20568;-76
2022/03/16 07:00:25;;;;;;;0.30;0.30;;;5.60;99.90;;;5.41;100.00;101992.00;5032201;28;20223;-76
2022/03/16 07:03:02;;;;;;;0.20;0.20;;;5.70;99.90;;;5.45;100.00;101988.72;5035401;28;20210;-76
2022/03/16 07:05:34;;;;;;;0.20;0.20;;;5.60;99.90;;;5.38;100.00;101986.59;5031465;28;20231;-76
2022/03/16 07:08:13;;;;;;;0.30;0.30;;;5.70;99.90;;;5.38;100.00;101987.50;5032109;28;20375;-76
2022/03/16 07:10:43;;;;;;;0.20;0.20;;;5.60;99.90;;;5.44;100.00;101985.19;5032364;28;20222;-76
2022/03/16 07:13:13;;;;;;;0.25;0.25;;;5.70;99.90;;;5.49;100.00;101987.16;5031981;28;20203;-76
2022/03/16 07:15:44;;;;;;;0.20;0.20;;;5.70;99.90;;;5.53;100.00;101991.75;5032259;28;20210;-76
2022/03/16 07:18:13;;;;;;;0.20;0.20;;;;;;;5.56;100.00;101987.59;5030181;28;20211;-76
2022/03/16 07:20:41;;;;;;;0.30;0.30;;;;;;;5.49;100.00;101979.28;5030455;28;20223;-75
2022/03/16 07:23:13;;;;;;;0.28;0.28;;;5.70;99.90;;;5.52;100.00;101985.63;5030671;28;20215;-75
2022/03/16 07:25:44;;;;;;;0.20;0.20;;;5.80;99.90;;;5.61;100.00;101995.72;5032055;28;20237;-74
2022/03/16 07:28:14;;;;;;;0.20;0.20;;;5.80;99.90;;;5.64;100.00;102003.75;5011005;28;20221;-74
2022/03/16 07:30:42;;;;;;;0.20;0.20;;;;;;;5.73;100.00;102007.75;5012508;28;20230;-74
2022/03/16 07:33:11;;;;;;;0.30;0.30;;;5.90;99.90;;;5.67;100.00;101994.31;5012262;28;20208;-74
2022/03/16 07:35:40;;;;;;;0.30;0.30;;;5.90;99.90;;;5.63;100.00;101989.72;5029388;28;20714;-74
2022/03/16 07:38:09;;;;;;;0.20;0.20;;;;;;;5.74;100.00;102000.78;5031776;28;20283;-74
2022/03/16 07:40:37;;;;;;;0.50;0.50;;;;;;;5.70;100.00;101997.09;5031054;28;20246;-75
2022/03/16 07:43:06;;;;;;;0.43;0.43;;;6.00;99.90;;;5.80;100.00;102009.00;5032187;28;20211;-75
2022/03/16 07:45:35;;;;;;;0.22;0.22;;;6.00;99.90;;;5.81;100.00;102002.03;5030404;28;20231;-77
2022/03/16 07:48:04;;;;;;;0.77;0.77;;;6.00;99.90;;;5.82;100.00;102004.72;5033367;28;20231;-76
2022/03/16 07:50:33;;;;;;;1.55;1.48;;;6.00;99.90;;;5.78;100.00;102008.00;5030450;28;20649;-75
2022/03/16 07:53:02;;;;;;;0.30;0.30;;;;;;;5.93;100.00;102015.84;5030562;28;20656;-76
2022/03/16 07:55:30;;;;;;;0.20;0.20;;;;;;;6.00;100.00;102015.34;5029838;28;20203;-75
2022/03/16 07:57:59;;;;;;;0.20;0.20;;;6.10;99.90;;;5.85;100.00;102006.59;5031438;28;20690;-75
2022/03/16 08:00:27;;;;;;;0.20;0.20;;;;;;;5.89;100.00;102005.94;5030529;28;20219;-76
2022/03/16 08:03:01;;;;;;;0.20;0.20;;;6.20;99.90;;;6.02;100.00;102014.59;5033212;28;20209;-75
2022/03/16 08:05:30;;;;;;;0.20;0.20;;;;;;;6.13;100.00;102025.66;5028066;28;20227;-75
2022/03/16 08:07:58;;;;;;;0.45;0.45;;;;;;;6.07;100.00;102012.22;5031200;28;20226;-75
2022/03/16 08:10:26;;;;;;;0.30;0.30;;;;;;;6.16;100.00;102022.28;5029603;28;20223;-76
2022/03/16 08:12:54;;;;;;;0.20;0.20;;;6.40;99.90;;;5.98;100.00;101999.50;5029767;28;20203;-76
2022/03/16 08:15:22;;;;;;;0.20;0.20;;;;;;;6.01;100.00;101999.66;5030559;28;20215;-76
2022/03/16 08:17:51;;;;;;;0.30;0.30;;;;;;;6.14;100.00;101997.66;5009575;28;20222;-76
2022/03/16 08:20:19;;;;;;;0.20;0.20;;;6.40;99.90;;;6.18;100.00;101994.38;5027213;28;20223;-76
2022/03/16 08:22:51;;;;;;;1.35;1.30;;;6.50;99.90;;;6.25;100.00;101993.88;5030294;28;20585;-76
2022/03/16 08:25:21;;;;;;;0.38;0.38;;;;;;;6.38;100.00;102001.53;5030336;28;20218;-76
2022/03/16 08:27:49;;;;;;;0.63;0.63;;;6.50;99.90;;;6.32;100.00;101996.88;5031220;28;20214;-76
2022/03/16 08:30:18;;;;;;;0.20;0.20;;;6.60;99.90;;;6.39;100.00;101992.84;5028228;28;20215;-76
2022/03/16 08:32:46;;;;;;;1.10;1.10;;;;;;;6.30;100.00;101990.66;5030880;28;20207;-76
2022/03/16 08:35:14;;;;;;;0.25;0.25;;;6.60;99.90;;;6.47;100.00;102003.75;5029422;28;20199;-75
2022/03/16 08:37:43;;;;;;;0.20;0.20;;;;;;;6.56;100.00;102005.13;5031499;28;20208;-76
2022/03/16 08:40:15;;;;;;;0.20;0.20;;;;;;;6.56;100.00;101986.75;5016167;28;20246;-77
2022/03/16 08:42:44;;;;;;;0.20;0.20;;;;;;;6.64;100.00;101984.50;5011489;28;20653;-76
2022/03/16 08:45:12;;;;;;;0.20;0.20;;;;;;;6.83;100.00;101984.56;5016229;28;20238;-76
2022/03/16 08:47:40;;;;;;;0.22;0.22;;;;;;;6.83;100.00;101978.41;5029453;28;20222;-76
2022/03/16 08:50:09;;;;;;;0.22;0.22;;;6.90;99.90;;;6.79;100.00;101971.19;5030165;28;20219;-76
2022/03/16 08:52:37;;;;;;;0.30;0.30;;;;;;;6.83;100.00;101970.50;5027305;28;20211;-76
2022/03/16 08:55:06;;;;;;;0.20;0.20;;;;;;;6.92;100.00;101974.50;5028766;28;20215;-77
2022/03/16 08:57:38;;;;;;;0.20;0.20;;;7.10;99.90;;;6.94;100.00;101964.94;5028239;28;20203;-77
2022/03/16 09:00:07;;;;;;;0.20;0.20;;;7.20;99.90;;;6.99;100.00;101962.53;5029593;28;20234;-77
2022/03/16 09:02:36;;;;;;;0.30;0.30;;;7.20;99.90;;;7.11;100.00;101965.75;5029662;28;20199;-77
2022/03/16 09:05:05;;;;;;;0.30;0.30;;;7.30;99.90;;;7.15;100.00;101965.06;5013223;28;20215;-77
2022/03/16 09:07:34;;;;;;;0.25;0.25;;;;;;;7.32;100.00;101952.69;5027697;28;20207;-77
2022/03/16 09:10:02;;;;;;;0.30;0.30;;;;;;;7.43;100.00;101954.09;5029477;28;20222;-78
2022/03/16 09:12:30;;;;;;;0.30;0.30;;;7.70;99.90;;;7.45;100.00;101941.00;5029327;28;20191;-77
2022/03/16 09:14:58;;;;;;;0.30;0.30;;;7.70;99.90;;;7.40;100.00;101922.34;5030461;28;20207;-77
2022/03/16 09:17:28;;;;;;;0.40;0.40;;;;;;;7.46;100.00;101917.38;5028577;28;20207;-77
2022/03/16 09:19:56;;;;;;;0.20;0.20;;;;;;;7.56;100.00;101913.41;5029602;28;20240;-77
2022/03/16 09:22:24;;;;;;;0.22;0.22;;;7.80;99.90;;;7.56;100.00;101914.31;5029240;28;20211;-76
2022/03/16 09:24:53;;;;;;;0.40;0.40;;;;;;;7.63;100.00;101905.88;5030335;28;20203;-77
2022/03/16 09:27:22;;;;;;;0.32;0.32;;;7.80;99.90;;;7.53;100.00;101889.59;5030258;28;20235;-78
2022/03/16 09:29:53;;;;;;;0.30;0.30;;;;;;;7.83;100.00;101904.13;5013288;28;20218;-78
2022/03/16 09:32:22;;;;;;;0.30;0.30;;;;;;;7.94;100.00;101907.22;5028887;28;20203;-77
2022/03/16 09:34:51;;;;;;;0.20;0.20;;;8.10;99.90;;;7.66;100.00;101871.78;5029637;28;20203;-76
2022/03/16 09:37:19;;;;;;;0.20;0.20;;;8.10;99.90;;;7.80;100.00;101876.72;5028419;28;20199;-76
2022/03/16 09:39:47;;;;;;;0.20;0.20;;;8.20;99.90;;;7.78;100.00;101855.59;5030230;28;20226;-77
2022/03/16 09:42:15;;;;;;;0.20;0.20;;;;;;;7.87;100.00;101848.13;5029808;28;20218;-77
2022/03/16 09:44:45;;;;;;;0.20;0.20;;;8.20;99.90;;;7.80;100.00;101832.91;5030137;28;20592;-77
2022/03/16 09:47:17;;;;;;;0.40;0.40;;;8.30;99.90;;;8.03;100.00;101839.13;5029709;28;20703;-77
2022/03/16 09:49:46;;;;;;;0.20;0.20;;;8.30;99.90;;;8.00;100.00;101829.34;5011962;28;20239;-77
2022/03/16 09:52:14;;;;;;;0.30;0.30;;;8.50;99.90;;;8.32;100.00;101842.94;5010598;28;20204;-77
2022/03/16 09:54:43;;;;;;;0.30;0.30;;;;;;;8.28;100.00;101814.66;5015570;28;20200;-76
2022/03/16 09:57:11;;;;;;;0.20;0.20;;;;;;;8.17;100.00;101795.78;5029453;28;20204;-76
2022/03/16 09:59:42;;;;;;;0.20;0.20;;;;;;;8.40;100.00;101798.47;5027939;28;20708;-76
2022/03/16 10:02:16;;;;;;;0.20;0.20;;;8.80;99.90;;;8.56;100.00;101793.88;5029690;28;20200;-76
2022/03/16 10:04:47;;;;;;;0.20;0.20;;;8.90;99.90;;;8.45;100.00;101762.66;5028923;28;20213;-77
2022/03/16 10:07:15;;;;;;;0.20;0.20;;;9.00;99.90;;;8.59;100.00;101759.69;5029807;28;20231;-76
2022/03/16 10:15:18;;;;;;;0.20;0.20;;;9.30;99.90;;;9.16;100.00;101748.63;5022097;28;20211;-77
2022/03/16 10:18:02;;;;;;;0.10;0.10;;;9.40;99.90;;;9.17;100.00;101729.31;5032828;28;20200;-77
2022/03/16 10:20:42;;;;;;;0.30;0.30;;;9.60;99.90;;;9.17;100.00;101693.25;5017139;28;20227;-77
2022/03/16 10:23:17;;;;;;;0.20;0.20;;;9.80;99.90;;;9.34;100.00;101687.66;5031278;28;20207;-77
2022/03/16 10:25:51;;;;;;;0.20;0.20;;;9.80;99.90;;;9.54;100.00;101713.00;5033449;28;20202;-78
2022/03/16 10:28:27;;;;;;;1.60;1.50;;;9.90;99.90;;;9.42;100.00;101688.81;5032465;28;20199;-77
2022/03/16 10:31:08;;;;;;;0.20;0.20;;;10.00;99.90;;;9.67;100.00;101695.81;5015221;28;20679;-77
2022/03/16 10:33:53;;;;;;;0.20;0.20;;;10.10;99.90;;;9.74;100.00;101693.41;5033265;28;20211;-77
2022/03/16 10:36:26;;;;;;;0.20;0.20;;;10.20;99.90;;;9.87;100.00;101673.56;5028023;28;20203;-77
2022/03/16 10:38:58;;;;;;;0.30;0.30;;;;;;;10.22;100.00;101686.16;5013432;28;20214;-78
2022/03/16 10:47:16;;;;;;;0.40;0.40;;;10.60;99.90;;;10.22;100.00;101654.44;5029502;28;20688;-77
2022/03/16 10:49:46;;;;;;;0.30;0.30;;;10.80;99.90;;;10.40;100.00;101664.69;5032490;28;20219;-77
2022/03/16 10:52:20;;;;;;;0.20;0.20;;;11.00;99.90;;;10.67;100.00;101684.84;5032879;28;20203;-77
2022/03/16 10:54:48;;;;;;;0.45;0.45;;;11.10;99.90;;;10.33;100.00;101625.66;5014498;28;20194;-77